createdAt,value
2023-03-06T00:02:47.528Z,97.30
2023-03-06T00:05:50.799Z,97.30
2023-03-06T00:08:54.370Z,97.23
2023-03-06T00:11:57.307Z,97.31
2023-03-06T00:15:00.022Z,97.50
2023-03-06T00:18:04.946Z,97.60
2023-03-06T00:21:08.480Z,97.56
2023-03-06T00:24:11.418Z,97.84
2023-03-06T00:27:15.135Z,98.62
2023-03-06T00:30:23.877Z,98.86
2023-03-06T00:33:26.599Z,99.20
2023-03-06T00:36:29.791Z,99.49
2023-03-06T00:39:33.057Z,99.60
2023-03-06T00:42:36.218Z,99.72
2023-03-06T00:45:39.042Z,99.90
2023-03-06T00:48:44.228Z,100.00
2023-03-06T00:51:46.922Z,100.00
2023-03-06T00:54:50.109Z,100.00
2023-03-06T00:57:52.927Z,100.00
2023-03-06T01:00:55.883Z,100.00
2023-03-06T01:03:58.636Z,100.00
2023-03-06T01:07:01.647Z,100.00
2023-03-06T01:10:05.979Z,100.00
2023-03-06T01:13:10.046Z,100.00
2023-03-06T01:16:15.896Z,100.00
2023-03-06T01:19:18.879Z,100.00
2023-03-06T01:22:21.562Z,100.00
2023-03-06T01:25:25.592Z,100.00
2023-03-06T01:28:29.236Z,100.00
2023-03-06T01:31:32.776Z,100.00
2023-03-06T01:34:35.487Z,100.00
2023-03-06T01:37:39.336Z,100.00
2023-03-06T01:40:42.501Z,100.00
2023-03-06T01:43:47.336Z,100.00
2023-03-06T01:46:49.986Z,100.00
2023-03-06T01:49:55.256Z,100.00
2023-03-06T01:52:59.933Z,100.00
2023-03-06T01:56:03.112Z,100.00
2023-03-06T01:59:07.272Z,100.00
2023-03-06T02:02:12.635Z,100.00
2023-03-06T02:05:16.933Z,100.00
2023-03-06T02:08:21.843Z,100.00
2023-03-06T02:11:25.810Z,100.00
2023-03-06T02:14:30.117Z,100.00
2023-03-06T02:17:35.184Z,100.00
2023-03-06T02:20:46.247Z,100.00
2023-03-06T02:24:00.733Z,100.00
2023-03-06T02:27:05.522Z,100.00
2023-03-06T02:30:09.710Z,100.00
2023-03-06T02:33:15.213Z,100.00
2023-03-06T02:36:18.149Z,100.00
2023-03-06T02:39:26.038Z,100.00
2023-03-06T02:42:29.907Z,100.00
2023-03-06T02:45:37.215Z,100.00
2023-03-06T02:48:40.507Z,100.00
2023-03-06T02:51:43.377Z,100.00
2023-03-06T02:54:47.735Z,100.00
2023-03-06T02:57:50.842Z,100.00
2023-03-06T03:00:54.098Z,100.00
2023-03-06T03:03:57.163Z,100.00
2023-03-06T03:07:00.288Z,100.00
2023-03-06T03:10:04.285Z,100.00
2023-03-06T03:13:07.557Z,100.00
2023-03-06T03:16:16.178Z,100.00
2023-03-06T03:19:19.329Z,100.00
2023-03-06T03:22:22.250Z,100.00
2023-03-06T03:25:26.846Z,100.00
2023-03-06T03:28:29.789Z,100.00
2023-03-06T03:31:33.351Z,100.00
2023-03-06T03:34:36.382Z,100.00
2023-03-06T03:37:40.259Z,100.00
2023-03-06T03:40:44.349Z,100.00
2023-03-06T03:43:48.428Z,100.00
2023-03-06T03:46:51.440Z,100.00
2023-03-06T03:49:55.349Z,100.00
2023-03-06T03:52:58.485Z,100.00
2023-03-06T03:56:01.680Z,100.00
2023-03-06T03:59:06.312Z,100.00
2023-03-06T04:02:10.556Z,100.00
2023-03-06T04:05:15.750Z,100.00
2023-03-06T04:08:18.528Z,100.00
2023-03-06T04:11:21.683Z,100.00
2023-03-06T04:14:24.612Z,100.00
2023-03-06T04:17:28.117Z,100.00
2023-03-06T04:20:31.367Z,100.00
2023-03-06T04:23:34.790Z,100.00
2023-03-06T04:26:37.528Z,100.00
2023-03-06T04:29:40.990Z,100.00
2023-03-06T04:32:44.214Z,100.00
2023-03-06T04:35:47.790Z,100.00
2023-03-06T04:38:51.552Z,100.00
2023-03-06T04:41:54.908Z,100.00
2023-03-06T04:44:57.578Z,100.00
2023-03-06T04:48:01.252Z,100.00
2023-03-06T04:51:04.322Z,100.00
2023-03-06T04:54:07.429Z,100.00
2023-03-06T04:57:10.871Z,100.00
2023-03-06T05:00:18.137Z,100.00
2023-03-06T05:03:21.048Z,100.00
2023-03-06T05:06:24.049Z,100.00
2023-03-06T05:09:26.846Z,100.00
2023-03-06T05:12:30.046Z,100.00
2023-03-06T05:15:32.815Z,100.00
2023-03-06T05:18:36.403Z,100.00
2023-03-06T05:21:39.155Z,100.00
2023-03-06T05:24:42.139Z,100.00
2023-03-06T05:27:45.051Z,100.00
2023-03-06T05:30:48.457Z,100.00
2023-03-06T05:33:51.127Z,100.00
2023-03-06T05:36:54.115Z,100.00
2023-03-06T05:39:56.774Z,100.00
2023-03-06T05:42:59.694Z,100.00
2023-03-06T05:46:04.913Z,100.00
2023-03-06T05:49:07.962Z,99.41
2023-03-06T05:52:17.558Z,99.65
2023-03-06T05:55:21.867Z,99.30
2023-03-06T05:58:24.600Z,99.12
2023-03-06T06:01:28.573Z,99.46
2023-03-06T06:04:32.177Z,99.73
2023-03-06T06:07:34.974Z,99.83
2023-03-06T06:10:39.209Z,100.00
2023-03-06T06:13:42.028Z,100.00
2023-03-06T06:16:45.051Z,100.00
2023-03-06T06:19:47.689Z,100.00
2023-03-06T06:22:51.027Z,100.00
2023-03-06T06:25:53.696Z,100.00
2023-03-06T06:29:00.369Z,100.00
2023-03-06T06:32:03.461Z,100.00
2023-03-06T06:35:06.938Z,100.00
2023-03-06T06:38:09.589Z,100.00
2023-03-06T06:41:36.128Z,100.00
2023-03-06T06:44:36.367Z,100.00
2023-03-06T06:47:43.499Z,100.00
2023-03-06T06:50:46.215Z,100.00
2023-03-06T06:53:51.935Z,99.71
2023-03-06T06:56:54.736Z,99.56
2023-03-06T06:59:57.713Z,99.15
2023-03-06T07:03:00.361Z,99.14
2023-03-06T07:06:04.332Z,99.08
2023-03-06T07:09:06.988Z,98.87
2023-03-06T07:12:10.092Z,98.62
2023-03-06T07:15:18.526Z,98.22
2023-03-06T07:18:21.553Z,97.88
2023-03-06T07:21:24.414Z,97.42
2023-03-06T07:24:28.225Z,96.20
2023-03-06T07:27:31.417Z,95.21
2023-03-06T07:30:34.524Z,94.68
2023-03-06T07:33:38.520Z,94.72
2023-03-06T07:36:41.890Z,95.43
2023-03-06T07:39:44.655Z,95.47
2023-03-06T07:42:48.121Z,95.21
2023-03-06T07:45:59.718Z,94.92
2023-03-06T07:49:03.148Z,94.07
2023-03-06T07:52:05.916Z,93.42
2023-03-06T07:55:09.724Z,93.55
2023-03-06T07:58:12.376Z,92.55
2023-03-06T08:01:18.535Z,93.17
2023-03-06T08:04:21.580Z,92.78
2023-03-06T08:07:24.353Z,91.95
2023-03-06T08:10:27.398Z,91.66
2023-03-06T08:13:30.463Z,90.67
2023-03-06T08:16:33.485Z,90.67
2023-03-06T08:19:36.253Z,89.80
2023-03-06T08:22:39.484Z,89.67
2023-03-06T08:25:42.106Z,89.77
2023-03-06T08:28:45.421Z,89.52
2023-03-06T08:31:48.597Z,89.36
2023-03-06T08:34:51.457Z,88.36
2023-03-06T08:37:54.100Z,88.34
2023-03-06T08:40:57.106Z,87.14
2023-03-06T08:44:00.119Z,86.34
2023-03-06T08:47:03.816Z,87.06
2023-03-06T08:50:06.910Z,85.66
2023-03-06T08:53:09.870Z,84.19
2023-03-06T08:56:22.650Z,83.51
2023-03-06T08:59:25.619Z,81.95
2023-03-06T09:02:28.419Z,81.83
2023-03-06T09:05:31.756Z,81.41
2023-03-06T09:08:34.484Z,81.04
2023-03-06T09:11:37.537Z,81.82
2023-03-06T09:14:40.276Z,81.44
2023-03-06T09:17:43.228Z,81.34
2023-03-06T09:20:45.904Z,80.08
2023-03-06T09:23:49.794Z,78.82
2023-03-06T09:26:52.528Z,78.22
2023-03-06T09:29:56.464Z,77.19
2023-03-06T09:32:59.201Z,76.63
2023-03-06T09:36:03.135Z,74.77
2023-03-06T09:39:05.803Z,73.56
2023-03-06T09:42:15.487Z,72.86
2023-03-06T09:45:20.520Z,73.60
2023-03-06T09:48:35.336Z,70.63
2023-03-06T09:51:51.155Z,70.92
2023-03-06T09:54:59.093Z,70.36
2023-03-06T09:58:16.165Z,71.40
2023-03-06T10:01:27.568Z,69.80
2023-03-06T10:04:41.785Z,70.10
2023-03-06T10:08:05.017Z,66.10
2023-03-06T10:11:11.614Z,68.03
2023-03-06T10:14:35.353Z,68.91
2023-03-06T10:17:41.315Z,66.17
2023-03-06T10:20:54.244Z,66.73
2023-03-06T10:24:13.711Z,65.43
2023-03-06T10:27:39.709Z,64.81
2023-03-06T10:30:49.984Z,66.90
2023-03-06T10:34:28.635Z,65.53
2023-03-06T10:37:32.570Z,65.18
2023-03-06T10:40:43.166Z,65.80
2023-03-06T10:44:06.710Z,63.80
2023-03-06T10:47:29.044Z,62.28
2023-03-06T10:50:32.302Z,63.57
2023-03-06T10:53:35.171Z,64.63
2023-03-06T10:56:41.294Z,60.81
2023-03-06T10:59:52.982Z,59.53
2023-03-06T11:03:14.509Z,57.72
2023-03-06T11:06:35.617Z,57.33
2023-03-06T11:09:39.433Z,59.25
2023-03-06T11:12:43.514Z,60.01
2023-03-06T11:16:05.391Z,59.26
2023-03-06T11:19:27.318Z,60.15
2023-03-06T11:22:30.974Z,59.94
2023-03-06T11:25:41.772Z,60.52
2023-03-06T11:29:22.925Z,60.43
2023-03-06T11:32:45.921Z,60.94
2023-03-06T11:36:03.053Z,61.41
2023-03-06T11:39:16.369Z,61.06
2023-03-06T11:42:26.501Z,62.53
2023-03-06T11:46:10.824Z,60.82
2023-03-06T11:49:22.840Z,59.65
2023-03-06T11:52:32.125Z,61.60
2023-03-06T11:55:56.946Z,60.50
2023-03-06T11:59:03.284Z,62.21
2023-03-06T12:02:33.142Z,60.70
2023-03-06T12:06:09.749Z,59.72
2023-03-06T12:09:12.576Z,59.20
2023-03-06T12:12:32.289Z,58.76
2023-03-06T12:15:40.936Z,58.31
2023-03-06T12:18:55.825Z,60.06
2023-03-06T12:22:14.288Z,59.45
2023-03-06T12:25:23.226Z,59.72
2023-03-06T12:28:56.813Z,59.10
2023-03-06T12:32:21.325Z,60.20
2023-03-06T12:35:35.943Z,60.80
2023-03-06T12:38:39.361Z,61.32
2023-03-06T12:42:06.755Z,62.15
2023-03-06T12:45:37.226Z,61.75
2023-03-06T12:48:43.602Z,62.25
2023-03-06T12:51:47.115Z,63.53
2023-03-06T12:54:50.504Z,63.69
2023-03-06T12:57:53.977Z,64.63
2023-03-06T13:01:30.801Z,65.49
2023-03-06T13:04:37.015Z,66.52
2023-03-06T13:07:52.832Z,66.39
2023-03-06T13:11:18.641Z,67.18
2023-03-06T13:14:54.852Z,68.41
2023-03-06T13:17:58.702Z,69.32
2023-03-06T13:21:02.370Z,69.18
2023-03-06T13:24:05.822Z,69.15
2023-03-06T13:27:12.043Z,68.52
2023-03-06T13:30:38.861Z,69.47
2023-03-06T13:33:44.345Z,69.49
2023-03-06T13:36:47.326Z,69.50
2023-03-06T13:39:52.601Z,70.17
2023-03-06T13:43:18.790Z,70.87
2023-03-06T13:46:24.995Z,72.22
2023-03-06T13:49:29.450Z,71.70
2023-03-06T13:52:43.605Z,72.49
2023-03-06T13:56:02.522Z,71.96
2023-03-06T13:59:44.005Z,72.47
2023-03-06T14:03:25.187Z,73.05
2023-03-06T14:06:37.443Z,73.22
2023-03-06T14:09:45.898Z,74.30
2023-03-06T14:12:48.807Z,73.92
2023-03-06T14:15:54.233Z,74.91
2023-03-06T14:18:58.893Z,75.64
2023-03-06T14:22:03.848Z,75.95
2023-03-06T14:25:30.150Z,75.78
2023-03-06T14:28:34.542Z,75.70
2023-03-06T14:31:41.439Z,75.39
2023-03-06T14:34:46.457Z,76.23
2023-03-06T14:37:53.306Z,76.10
2023-03-06T14:40:56.544Z,75.73
2023-03-06T14:44:18.176Z,75.37
2023-03-06T14:47:29.696Z,76.61
2023-03-06T14:50:36.353Z,75.89
2023-03-06T14:53:39.147Z,75.54
2023-03-06T14:56:46.003Z,76.11
2023-03-06T14:59:59.306Z,75.81
2023-03-06T15:03:07.682Z,76.13
2023-03-06T15:06:17.118Z,74.55
2023-03-06T15:09:24.477Z,75.49
2023-03-06T15:12:27.410Z,74.90
2023-03-06T15:15:32.832Z,74.84
2023-03-06T15:18:39.230Z,74.88
2023-03-06T15:21:47.888Z,75.19
2023-03-06T15:24:51.008Z,74.47
2023-03-06T15:28:21.554Z,75.33
2023-03-06T15:31:27.928Z,75.24
2023-03-06T15:34:31.048Z,75.03
2023-03-06T15:37:34.207Z,75.38
2023-03-06T15:40:37.138Z,75.20
2023-03-06T15:43:40.503Z,75.82
2023-03-06T15:46:43.408Z,76.16
2023-03-06T15:49:46.539Z,75.60
2023-03-06T15:52:50.251Z,75.42
2023-03-06T15:55:53.302Z,75.93
2023-03-06T15:58:57.978Z,76.14
2023-03-06T16:02:13.606Z,75.61
2023-03-06T16:05:18.084Z,75.86
2023-03-06T16:08:20.863Z,76.25
2023-03-06T16:11:29.962Z,76.82
2023-03-06T16:14:35.234Z,77.40
2023-03-06T16:17:38.197Z,77.95
2023-03-06T16:20:41.715Z,81.13
2023-03-06T16:23:44.756Z,81.98
2023-03-06T16:26:52.884Z,82.09
2023-03-06T16:29:55.838Z,82.38
2023-03-06T16:32:58.887Z,83.87
2023-03-06T16:36:02.537Z,83.46
2023-03-06T16:39:05.717Z,83.98
2023-03-06T16:42:08.708Z,84.85
2023-03-06T16:45:11.511Z,84.97
2023-03-06T16:48:16.865Z,85.24
2023-03-06T16:51:22.032Z,85.26
2023-03-06T16:54:26.361Z,85.49
2023-03-06T16:57:35.618Z,85.93
2023-03-06T17:00:38.739Z,89.13
2023-03-06T17:03:41.593Z,88.65
2023-03-06T17:06:44.636Z,88.76
2023-03-06T17:09:47.291Z,88.62
2023-03-06T17:12:50.264Z,89.08
2023-03-06T17:15:56.908Z,89.01
2023-03-06T17:19:02.049Z,87.92
2023-03-06T17:22:04.834Z,87.39
2023-03-06T17:25:08.953Z,87.30
2023-03-06T17:28:12.501Z,87.24
2023-03-06T17:31:21.421Z,88.14
2023-03-06T17:34:24.691Z,89.18
2023-03-06T17:37:27.908Z,88.97
2023-03-06T17:40:30.642Z,89.45
2023-03-06T17:43:33.862Z,89.31
2023-03-06T17:46:36.573Z,89.20
2023-03-06T17:49:39.749Z,89.62
2023-03-06T17:52:42.426Z,89.62
2023-03-06T17:55:45.370Z,89.09
2023-03-06T17:58:48.164Z,89.00
2023-03-06T18:01:51.156Z,89.13
2023-03-06T18:04:56.423Z,88.97
2023-03-06T18:07:59.195Z,89.52
2023-03-06T18:11:07.742Z,90.28
2023-03-06T18:14:10.718Z,90.98
2023-03-06T18:17:13.689Z,90.98
2023-03-06T18:20:16.578Z,90.08
2023-03-06T18:23:19.988Z,90.08
2023-03-06T18:26:25.458Z,90.00
2023-03-06T18:29:28.406Z,89.37
2023-03-06T18:32:31.329Z,89.84
2023-03-06T18:35:35.785Z,89.39
2023-03-06T18:38:40.147Z,89.64
2023-03-06T18:41:43.248Z,89.80
2023-03-06T18:44:47.879Z,89.94
2023-03-06T18:47:50.876Z,90.29
2023-03-06T18:50:53.946Z,89.96
2023-03-06T18:54:01.361Z,90.22
2023-03-06T18:57:04.146Z,89.98
2023-03-06T19:00:08.441Z,89.88
2023-03-06T19:03:11.841Z,92.27
2023-03-06T19:06:20.331Z,98.32
2023-03-06T19:09:23.246Z,100.00
2023-03-06T19:12:26.263Z,100.00
2023-03-06T19:15:28.948Z,100.00
2023-03-06T19:18:32.444Z,100.00
2023-03-06T19:21:35.303Z,100.00
2023-03-06T19:24:38.279Z,100.00
2023-03-06T19:27:43.251Z,100.00
2023-03-06T19:30:46.337Z,100.00
2023-03-06T19:33:50.097Z,100.00
2023-03-06T19:36:53.215Z,100.00
2023-03-06T19:39:56.975Z,100.00
2023-03-06T19:42:59.993Z,100.00
2023-03-06T19:46:03.753Z,100.00
2023-03-06T19:49:12.204Z,100.00
2023-03-06T19:52:15.393Z,100.00
2023-03-06T19:55:18.365Z,100.00
2023-03-06T19:58:21.022Z,100.00
2023-03-06T20:01:26.609Z,100.00
2023-03-06T20:04:34.226Z,100.00
2023-03-06T20:07:36.886Z,100.00
2023-03-06T20:10:39.861Z,100.00
2023-03-06T20:13:47.460Z,100.00
2023-03-06T20:16:50.771Z,100.00
2023-03-06T20:19:53.610Z,100.00
2023-03-06T20:22:56.615Z,100.00
2023-03-06T20:26:09.044Z,100.00
2023-03-06T20:29:13.048Z,100.00
2023-03-06T20:32:15.836Z,100.00
2023-03-06T20:35:18.901Z,100.00
2023-03-06T20:38:21.605Z,100.00
2023-03-06T20:41:27.295Z,100.00
2023-03-06T20:44:30.229Z,100.00
2023-03-06T20:47:33.227Z,100.00
2023-03-06T20:50:35.872Z,100.00
2023-03-06T20:53:38.784Z,100.00
2023-03-06T20:56:43.268Z,100.00
2023-03-06T20:59:46.360Z,100.00
2023-03-06T21:02:49.155Z,100.00
2023-03-06T21:05:52.127Z,100.00
2023-03-06T21:08:55.833Z,100.00
2023-03-06T21:11:59.447Z,100.00
2023-03-06T21:15:02.062Z,100.00
2023-03-06T21:18:06.211Z,100.00
2023-03-06T21:21:11.207Z,100.00
2023-03-06T21:24:14.311Z,100.00
2023-03-06T21:27:17.019Z,100.00
2023-03-06T21:30:20.220Z,100.00
2023-03-06T21:33:23.136Z,100.00
2023-03-06T21:36:27.091Z,100.00
2023-03-06T21:39:29.717Z,100.00
2023-03-06T21:42:36.260Z,100.00
2023-03-06T21:45:44.393Z,100.00
2023-03-06T21:48:47.416Z,100.00
2023-03-06T21:51:50.144Z,100.00
2023-03-06T21:54:53.050Z,100.00
2023-03-06T21:57:56.373Z,100.00
2023-03-06T22:00:59.854Z,100.00
2023-03-06T22:04:02.930Z,100.00
2023-03-06T22:07:05.652Z,100.00
2023-03-06T22:10:12.000Z,100.00
2023-03-06T22:13:15.087Z,100.00
2023-03-06T22:16:18.514Z,100.00
2023-03-06T22:19:28.095Z,100.00
2023-03-06T22:22:31.500Z,100.00
2023-03-06T22:25:34.836Z,100.00
2023-03-06T22:28:38.968Z,100.00
2023-03-06T22:31:41.660Z,100.00
2023-03-06T22:34:44.664Z,100.00
2023-03-06T22:37:47.927Z,100.00
2023-03-06T22:40:50.843Z,100.00
2023-03-06T22:44:01.877Z,100.00
2023-03-06T22:47:04.902Z,100.00
2023-03-06T22:50:08.458Z,100.00
2023-03-06T22:53:11.442Z,100.00
2023-03-06T22:56:17.345Z,100.00
2023-03-06T22:59:20.344Z,100.00
2023-03-06T23:02:23.129Z,100.00
2023-03-06T23:05:28.457Z,100.00
2023-03-06T23:08:32.637Z,100.00
2023-03-06T23:11:35.184Z,100.00
2023-03-06T23:14:58.070Z,100.00
2023-03-06T23:18:19.581Z,100.00
2023-03-06T23:21:40.964Z,100.00
2023-03-06T23:25:02.330Z,100.00
2023-03-06T23:28:05.338Z,100.00
2023-03-06T23:31:12.433Z,100.00
2023-03-06T23:34:15.644Z,100.00
2023-03-06T23:37:18.291Z,100.00
2023-03-06T23:40:22.043Z,100.00
2023-03-06T23:43:24.707Z,100.00
2023-03-06T23:46:27.752Z,100.00
2023-03-06T23:49:30.832Z,100.00
2023-03-06T23:52:33.854Z,100.00
2023-03-06T23:55:44.841Z,100.00
2023-03-06T23:58:48.339Z,100.00
